createdAt,value
2023-12-12T00:00:35.876Z,46.93
2023-12-12T00:04:00.285Z,48.93
2023-12-12T00:07:26.460Z,40.33
2023-12-12T00:10:50.503Z,47.43
2023-12-12T00:14:12.171Z,45.53
2023-12-12T00:17:34.401Z,46.10
2023-12-12T00:20:56.593Z,43.07
2023-12-12T00:24:18.177Z,38.90
2023-12-12T00:27:42.059Z,41.63
2023-12-12T00:31:03.787Z,44.37
2023-12-12T00:34:28.188Z,41.83
2023-12-12T00:37:49.849Z,38.67
2023-12-12T00:41:13.958Z,106.63
2023-12-12T00:44:36.040Z,69.57
2023-12-12T00:48:00.256Z,40.00
2023-12-12T00:51:24.278Z,40.57
2023-12-12T00:54:48.124Z,42.73
2023-12-12T00:58:12.508Z,45.40
2023-12-12T01:01:35.065Z,41.57
2023-12-12T01:04:56.750Z,41.70
2023-12-12T01:08:23.708Z,39.37
2023-12-12T01:11:47.492Z,36.23
2023-12-12T01:15:11.697Z,38.00
2023-12-12T01:18:33.768Z,48.30
2023-12-12T01:21:55.760Z,39.27
2023-12-12T01:25:17.435Z,40.87
2023-12-12T01:28:39.170Z,40.53
2023-12-12T01:32:03.417Z,40.50
2023-12-12T01:35:25.013Z,37.40
2023-12-12T01:38:49.058Z,42.37
2023-12-12T01:42:13.186Z,37.47
2023-12-12T01:45:34.839Z,39.43
2023-12-12T01:48:59.186Z,43.67
2023-12-12T01:52:26.121Z,42.17
2023-12-12T01:55:57.126Z,43.97
2023-12-12T01:59:20.922Z,36.80
2023-12-12T02:02:42.797Z,39.33
2023-12-12T02:06:05.954Z,72.27
2023-12-12T02:09:28.085Z,42.17
2023-12-12T02:12:52.182Z,38.90
2023-12-12T02:16:14.964Z,36.57
2023-12-12T02:19:39.373Z,35.80
2023-12-12T02:23:01.340Z,35.73
2023-12-12T02:26:26.133Z,41.13
2023-12-12T02:29:48.057Z,35.40
2023-12-12T02:33:14.983Z,36.37
2023-12-12T02:36:36.670Z,42.93
2023-12-12T02:40:03.357Z,37.23
2023-12-12T02:43:25.012Z,33.23
2023-12-12T02:46:46.632Z,37.77
2023-12-12T02:50:11.717Z,40.40
2023-12-12T02:53:40.498Z,37.37
2023-12-12T02:57:02.152Z,39.35
2023-12-12T03:00:26.829Z,37.67
2023-12-12T03:03:51.855Z,38.37
2023-12-12T03:07:18.512Z,38.87
2023-12-12T03:10:42.565Z,33.40
2023-12-12T03:14:04.232Z,41.40
2023-12-12T03:17:25.842Z,32.40
2023-12-12T03:20:47.793Z,36.17
2023-12-12T03:24:09.563Z,40.40
2023-12-12T03:27:31.380Z,36.90
2023-12-12T03:30:53.874Z,41.67
2023-12-12T03:34:17.667Z,38.30
2023-12-12T03:37:42.382Z,39.00
2023-12-12T03:41:06.768Z,39.93
2023-12-12T03:44:31.133Z,40.70
2023-12-12T03:47:52.772Z,37.23
2023-12-12T03:51:16.710Z,38.83
2023-12-12T03:54:38.603Z,40.17
2023-12-12T03:58:02.504Z,35.40
2023-12-12T04:01:24.227Z,39.57
2023-12-12T04:04:45.921Z,37.90
2023-12-12T04:08:08.954Z,38.37
2023-12-12T04:11:35.665Z,35.00
2023-12-12T04:14:57.304Z,37.47
2023-12-12T04:18:21.105Z,41.37
2023-12-12T04:21:45.291Z,35.77
2023-12-12T04:25:07.986Z,46.90
2023-12-12T04:28:29.654Z,44.37
2023-12-12T04:31:51.711Z,42.47
2023-12-12T04:35:15.818Z,35.63
2023-12-12T04:38:37.423Z,35.47
2023-12-12T04:41:58.992Z,37.40
2023-12-12T04:45:20.641Z,41.80
2023-12-12T04:48:47.174Z,33.97
2023-12-12T04:52:09.195Z,41.03
2023-12-12T04:55:33.385Z,38.40
2023-12-12T04:58:55.328Z,34.90
2023-12-12T05:02:16.926Z,44.43
2023-12-12T05:05:40.936Z,42.90
2023-12-12T05:09:02.767Z,34.37
2023-12-12T05:12:25.126Z,35.63
2023-12-12T05:15:46.877Z,43.73
2023-12-12T05:19:13.635Z,37.90
2023-12-12T05:22:38.909Z,40.93
2023-12-12T05:26:00.931Z,40.80
2023-12-12T05:29:24.881Z,40.33
2023-12-12T05:32:49.330Z,37.33
2023-12-12T05:36:13.659Z,40.57
2023-12-12T05:39:35.310Z,44.33
2023-12-12T05:42:58.123Z,40.00
2023-12-12T05:46:22.208Z,36.00
2023-12-12T05:49:43.912Z,37.33
2023-12-12T05:53:08.023Z,38.73
2023-12-12T05:56:37.384Z,44.10
2023-12-12T05:59:59.561Z,40.67
2023-12-12T06:03:21.147Z,49.50
2023-12-12T06:06:44.310Z,57.50
2023-12-12T06:10:07.546Z,50.87
2023-12-12T06:13:29.908Z,52.67
2023-12-12T06:16:56.959Z,46.97
2023-12-12T06:20:18.814Z,41.83
2023-12-12T06:23:45.163Z,41.93
2023-12-12T06:27:07.222Z,37.07
2023-12-12T06:30:28.875Z,38.27
2023-12-12T06:33:53.935Z,38.50
2023-12-12T06:37:15.948Z,41.93
2023-12-12T06:40:37.695Z,42.90
2023-12-12T06:43:59.339Z,40.80
2023-12-12T06:47:21.432Z,37.37
2023-12-12T06:50:43.106Z,42.57
2023-12-12T06:54:07.050Z,86.87
2023-12-12T06:57:31.138Z,70.10
2023-12-12T07:00:53.336Z,38.23
2023-12-12T07:04:15.123Z,36.50
2023-12-12T07:07:36.894Z,34.87
2023-12-12T07:11:01.108Z,39.07
2023-12-12T07:14:22.873Z,39.10
2023-12-12T07:17:44.707Z,40.47
2023-12-12T07:21:07.225Z,45.77
2023-12-12T07:24:28.934Z,40.53
2023-12-12T07:27:55.731Z,41.33
2023-12-12T07:31:17.599Z,42.83
2023-12-12T07:34:39.667Z,41.20
2023-12-12T07:38:03.698Z,41.50
2023-12-12T07:41:25.478Z,41.33
2023-12-12T07:44:47.169Z,41.60
2023-12-12T07:48:11.695Z,41.67
2023-12-12T07:51:35.289Z,36.50
2023-12-12T07:54:57.278Z,39.20
2023-12-12T07:58:19.080Z,52.77
2023-12-12T08:01:43.528Z,45.70
2023-12-12T08:05:07.880Z,41.83
2023-12-12T08:08:33.061Z,43.13
2023-12-12T08:11:54.688Z,42.10
2023-12-12T08:15:23.368Z,46.50
2023-12-12T08:18:45.067Z,46.33
2023-12-12T08:22:06.830Z,44.43
2023-12-12T08:25:28.879Z,53.40
2023-12-12T08:28:50.974Z,46.40
2023-12-12T08:32:15.052Z,39.33
2023-12-12T08:35:37.523Z,38.03
2023-12-12T08:39:02.374Z,38.43
2023-12-12T08:42:26.578Z,45.53
2023-12-12T08:45:48.512Z,39.30
2023-12-12T08:49:10.327Z,39.10
2023-12-12T08:52:37.253Z,36.00
2023-12-12T08:55:59.655Z,38.20
2023-12-12T08:59:27.261Z,38.83
2023-12-12T09:02:51.640Z,45.90
2023-12-12T09:06:13.366Z,53.33
2023-12-12T09:09:38.070Z,43.00
2023-12-12T09:12:59.857Z,41.73
2023-12-12T09:16:21.660Z,39.03
2023-12-12T09:19:45.915Z,38.22
2023-12-12T09:23:07.708Z,38.35
2023-12-12T09:26:29.291Z,40.00
2023-12-12T09:29:55.864Z,41.70
2023-12-12T09:33:20.777Z,37.22
2023-12-12T09:36:42.769Z,35.83
2023-12-12T09:40:10.930Z,32.80
2023-12-12T09:43:40.134Z,32.60
2023-12-12T09:47:08.990Z,40.13
2023-12-12T09:50:33.951Z,33.47
2023-12-12T09:53:57.942Z,31.25
2023-12-12T09:57:22.879Z,31.40
2023-12-12T10:00:47.584Z,29.48
2023-12-12T10:04:11.541Z,30.83
2023-12-12T10:07:39.264Z,28.80
2023-12-12T10:11:00.970Z,30.50
2023-12-12T10:14:40.010Z,32.20
2023-12-12T10:18:05.240Z,32.47
2023-12-12T10:21:27.831Z,31.10
2023-12-12T10:24:54.152Z,30.83
2023-12-12T10:28:20.356Z,27.63
2023-12-12T10:31:46.384Z,27.93
2023-12-12T10:35:26.999Z,25.70
2023-12-12T10:38:49.020Z,28.60
2023-12-12T10:42:10.646Z,25.02
2023-12-12T10:45:35.052Z,24.63
2023-12-12T10:49:01.184Z,24.50
2023-12-12T10:52:25.913Z,20.88
2023-12-12T10:55:48.473Z,21.75
2023-12-12T10:59:55.998Z,20.10
2023-12-12T11:02:54.378Z,21.08
2023-12-12T11:06:19.045Z,20.63
2023-12-12T11:09:40.831Z,20.23
2023-12-12T11:13:04.134Z,19.88
2023-12-12T11:16:25.991Z,20.30
2023-12-12T11:19:49.950Z,19.80
2023-12-12T11:23:11.617Z,15.05
2023-12-12T11:26:34.925Z,18.63
2023-12-12T11:29:56.640Z,15.32
2023-12-12T11:33:18.569Z,19.52
2023-12-12T11:36:52.941Z,16.88
2023-12-12T11:40:18.976Z,17.17
2023-12-12T11:43:46.514Z,18.83
2023-12-12T11:47:16.856Z,19.73
2023-12-12T11:50:40.818Z,19.55
2023-12-12T11:54:07.952Z,16.05
2023-12-12T11:57:32.839Z,16.23
2023-12-12T12:00:54.528Z,16.65
2023-12-12T12:04:16.156Z,15.77
2023-12-12T12:07:39.902Z,14.88
2023-12-12T12:11:01.723Z,15.40
2023-12-12T12:14:29.285Z,11.60
2023-12-12T12:17:55.727Z,15.40
2023-12-12T12:21:17.671Z,16.45
2023-12-12T12:24:51.191Z,18.77
2023-12-12T12:28:12.947Z,13.70
2023-12-12T12:31:37.269Z,12.13
2023-12-12T12:35:09.565Z,14.30
2023-12-12T12:38:32.781Z,11.85
2023-12-12T12:41:59.737Z,13.70
2023-12-12T12:45:27.114Z,16.20
2023-12-12T12:48:48.883Z,18.75
2023-12-12T12:52:10.498Z,15.38
2023-12-12T12:55:34.709Z,15.02
2023-12-12T12:59:04.478Z,14.73
2023-12-12T13:02:26.158Z,11.95
2023-12-12T13:05:50.074Z,18.02
2023-12-12T13:09:18.685Z,14.45
2023-12-12T13:12:43.221Z,13.75
2023-12-12T13:16:06.925Z,13.23
2023-12-12T13:19:28.874Z,22.23
2023-12-12T13:22:50.773Z,14.63
2023-12-12T13:26:14.685Z,15.05
2023-12-12T13:29:36.460Z,13.05
2023-12-12T13:33:05.316Z,13.63
2023-12-12T13:36:29.985Z,14.82
2023-12-12T13:39:53.887Z,15.70
2023-12-12T13:43:15.730Z,14.85
2023-12-12T13:46:37.472Z,17.52
2023-12-12T13:50:00.128Z,16.10
2023-12-12T13:53:21.799Z,13.70
2023-12-12T13:56:45.670Z,17.27
2023-12-12T14:00:10.957Z,22.17
2023-12-12T14:03:32.884Z,14.18
2023-12-12T14:06:56.756Z,18.90
2023-12-12T14:10:19.505Z,16.02
2023-12-12T14:13:41.252Z,17.85
2023-12-12T14:17:05.496Z,11.40
2023-12-12T14:20:29.571Z,14.18
2023-12-12T14:23:53.787Z,23.45
2023-12-12T14:27:18.392Z,12.85
2023-12-12T14:30:42.928Z,16.25
2023-12-12T14:34:06.002Z,33.20
2023-12-12T14:37:30.839Z,17.75
2023-12-12T14:40:55.284Z,21.27
2023-12-12T14:44:17.089Z,17.10
2023-12-12T14:47:41.270Z,16.08
2023-12-12T14:51:02.958Z,24.92
2023-12-12T14:54:24.663Z,24.25
2023-12-12T14:57:47.318Z,31.17
2023-12-12T15:01:09.718Z,26.77
2023-12-12T15:04:31.423Z,16.52
2023-12-12T15:07:53.145Z,24.45
2023-12-12T15:11:14.938Z,25.23
2023-12-12T15:14:39.108Z,13.45
2023-12-12T15:18:00.880Z,14.30
2023-12-12T15:21:27.250Z,14.25
2023-12-12T15:24:51.311Z,12.50
2023-12-12T15:28:24.755Z,13.52
2023-12-12T15:31:53.730Z,15.45
2023-12-12T15:35:15.556Z,13.93
2023-12-12T15:38:37.957Z,15.93
2023-12-12T15:42:01.242Z,31.90
2023-12-12T15:45:23.097Z,23.85
2023-12-12T15:48:47.552Z,20.77
2023-12-12T15:52:10.302Z,28.27
2023-12-12T15:55:34.645Z,22.92
2023-12-12T15:58:58.963Z,38.35
2023-12-12T16:02:25.183Z,45.88
2023-12-12T16:05:46.983Z,36.80
2023-12-12T16:09:14.818Z,33.10
2023-12-12T16:12:37.617Z,33.17
2023-12-12T16:15:59.486Z,33.58
2023-12-12T16:19:21.468Z,32.92
2023-12-12T16:22:43.164Z,32.53
2023-12-12T16:26:07.279Z,27.13
2023-12-12T16:29:29.489Z,22.23
2023-12-12T16:32:55.410Z,23.63
2023-12-12T16:36:22.615Z,23.08
2023-12-12T16:39:46.523Z,19.85
2023-12-12T16:43:11.175Z,26.35
2023-12-12T16:46:33.021Z,28.98
2023-12-12T16:49:54.757Z,22.60
2023-12-12T16:53:16.370Z,20.98
2023-12-12T16:56:40.159Z,29.33
2023-12-12T17:00:05.467Z,30.08
2023-12-12T17:03:27.147Z,33.85
2023-12-12T17:06:48.813Z,44.50
2023-12-12T17:10:15.375Z,40.17
2023-12-12T17:13:37.094Z,44.13
2023-12-12T17:16:59.654Z,44.00
2023-12-12T17:20:24.135Z,41.73
2023-12-12T17:23:48.360Z,44.42
2023-12-12T17:27:11.949Z,37.80
2023-12-12T17:30:38.663Z,32.35
2023-12-12T17:34:00.445Z,24.45
2023-12-12T17:37:22.304Z,28.88
2023-12-12T17:40:44.345Z,30.73
2023-12-12T17:44:08.155Z,35.40
2023-12-12T17:47:30.304Z,34.17
2023-12-12T17:50:52.134Z,37.75
2023-12-12T17:54:21.015Z,38.00
2023-12-12T17:57:42.866Z,35.40
2023-12-12T18:01:04.997Z,40.38
2023-12-12T18:04:27.739Z,35.55
2023-12-12T18:07:50.499Z,38.17
2023-12-12T18:11:12.944Z,31.45
2023-12-12T18:14:37.101Z,33.50
2023-12-12T18:18:00.537Z,48.85
2023-12-12T18:21:22.804Z,122.77
2023-12-12T18:24:44.620Z,33.10
2023-12-12T18:28:09.031Z,32.17
2023-12-12T18:31:35.920Z,33.20
2023-12-12T18:34:59.020Z,33.73
2023-12-12T18:38:22.996Z,37.00
2023-12-12T18:41:46.765Z,35.70
2023-12-12T18:45:12.236Z,36.20
2023-12-12T18:48:35.576Z,36.97
2023-12-12T18:51:59.756Z,31.65
2023-12-12T18:55:21.463Z,30.60
2023-12-12T18:58:43.786Z,36.67
2023-12-12T19:02:08.373Z,42.50
2023-12-12T19:05:30.143Z,36.20
2023-12-12T19:08:52.869Z,43.00
2023-12-12T19:12:16.728Z,34.10
2023-12-12T19:15:41.914Z,36.20
2023-12-12T19:19:06.075Z,52.20
2023-12-12T19:22:29.115Z,55.73
2023-12-12T19:25:51.088Z,50.27
2023-12-12T19:29:15.217Z,43.90
2023-12-12T19:32:41.799Z,44.83
2023-12-12T19:36:06.441Z,47.23
2023-12-12T19:39:30.363Z,44.30
2023-12-12T19:42:56.122Z,43.73
2023-12-12T19:46:20.314Z,45.20
2023-12-12T19:49:44.123Z,48.47
2023-12-12T19:53:07.475Z,54.50
2023-12-12T19:56:29.812Z,48.83
2023-12-12T19:59:53.701Z,48.70
2023-12-12T20:03:15.673Z,60.80
2023-12-12T20:06:39.668Z,52.97
2023-12-12T20:10:05.420Z,55.47
2023-12-12T20:13:27.384Z,52.33
2023-12-12T20:16:52.946Z,46.07
2023-12-12T20:20:15.019Z,48.17
2023-12-12T20:23:38.053Z,60.40
2023-12-12T20:26:59.678Z,55.60
2023-12-12T20:30:21.498Z,41.97
2023-12-12T20:33:44.091Z,35.40
2023-12-12T20:37:05.868Z,33.42
2023-12-12T20:40:27.570Z,31.00
2023-12-12T20:43:52.102Z,23.90
2023-12-12T20:47:14.548Z,27.27
2023-12-12T20:50:36.425Z,25.92
2023-12-12T20:54:03.111Z,29.67
2023-12-12T20:57:27.190Z,24.33
2023-12-12T21:00:49.109Z,26.52
2023-12-12T21:04:10.865Z,29.57
2023-12-12T21:07:35.423Z,20.35
2023-12-12T21:11:00.289Z,27.65
2023-12-12T21:14:21.981Z,28.73
2023-12-12T21:17:43.707Z,25.87
2023-12-12T21:21:05.568Z,20.52
2023-12-12T21:24:29.495Z,17.73
2023-12-12T21:27:53.952Z,24.95
2023-12-12T21:31:15.698Z,22.53
2023-12-12T21:34:37.392Z,20.58
2023-12-12T21:37:59.314Z,24.48
2023-12-12T21:41:21.027Z,24.30
2023-12-12T21:44:45.316Z,22.00
2023-12-12T21:48:09.480Z,19.90
2023-12-12T21:51:31.477Z,24.15
2023-12-12T21:54:55.360Z,22.83
2023-12-12T21:58:18.356Z,21.13
2023-12-12T22:01:49.385Z,24.93
2023-12-12T22:05:13.333Z,23.00
2023-12-12T22:08:38.494Z,33.30
2023-12-12T22:12:02.462Z,33.80
2023-12-12T22:15:26.554Z,34.37
2023-12-12T22:18:48.310Z,36.40
2023-12-12T22:22:12.614Z,34.20
2023-12-12T22:25:34.720Z,33.50
2023-12-12T22:29:01.126Z,41.50
2023-12-12T22:32:22.902Z,35.10
2023-12-12T22:35:44.541Z,29.57
2023-12-12T22:39:15.780Z,28.10
2023-12-12T22:42:42.914Z,26.77
2023-12-12T22:46:05.220Z,24.70
2023-12-12T22:49:31.855Z,23.33
2023-12-12T22:52:58.270Z,15.80
2023-12-12T22:56:24.921Z,17.23
2023-12-12T22:59:49.357Z,12.47
2023-12-12T23:03:13.361Z,15.67
2023-12-12T23:06:37.986Z,16.00
2023-12-12T23:09:59.744Z,62.17
2023-12-12T23:13:21.411Z,21.73
2023-12-12T23:16:45.524Z,15.67
2023-12-12T23:20:12.557Z,16.03
2023-12-12T23:23:34.994Z,17.43
2023-12-12T23:27:00.629Z,18.52
2023-12-12T23:30:22.496Z,23.10
2023-12-12T23:33:44.311Z,20.27
2023-12-12T23:37:06.020Z,17.20
2023-12-12T23:40:30.438Z,24.83
2023-12-12T23:43:56.846Z,19.83
2023-12-12T23:47:21.991Z,18.17
2023-12-12T23:50:43.594Z,18.93
2023-12-12T23:54:10.618Z,18.83
2023-12-12T23:57:35.111Z,20.33
